Time;durP1;ratioP1;P1;durP2;ratioP2;P2;SDS_P1;SDS_P2;PMS_P1;PMS_P2;Temp;Humidity;BMP_temperature;BMP_pressure;BME280_temperature;BME280_humidity;BME280_pressure;Samples;Min_cycle;Max_cycle;Signal;HPM_P1;HPM_P2
2023/05/27 00:01:25;;;;;;;14.47;6.60;;;;;;;;;;5073038;28;20422;-59
2023/05/27 00:03:52;;;;;;;13.60;6.70;;;;;;;;;;5073585;28;20502;-59
2023/05/27 00:06:19;;;;;;;12.70;7.00;;;;;;;;;;5076502;28;20485;-59
2023/05/27 00:08:47;;;;;;;9.30;6.13;;;;;;;;;;5076443;28;20457;-59
2023/05/27 00:11:15;;;;;;;11.60;6.60;;;;;;;;;;5076568;28;20459;-59
2023/05/27 00:13:42;;;;;;;11.70;6.43;;;;;;;;;;5076475;28;20432;-58
2023/05/27 00:16:12;;;;;;;8.30;6.20;;;;;;;;;;5076482;28;20852;-60
2023/05/27 00:18:40;;;;;;;9.33;5.97;;;;;;;;;;5076472;28;20867;-60
2023/05/27 00:21:07;;;;;;;19.27;6.90;;;;;;;;;;5076064;28;20455;-59
2023/05/27 00:23:35;;;;;;;14.10;5.70;;;;;;;;;;5076101;28;20487;-59
2023/05/27 00:26:02;;;;;;;7.70;5.57;;;;;;;;;;5075970;28;20447;-59
2023/05/27 00:28:31;;;;;;;8.13;5.13;;;;;;;;;;5075969;28;20449;-59
2023/05/27 00:30:58;;;;;;;11.13;5.33;;;;;;;;;;5075956;28;20811;-59
2023/05/27 00:33:27;;;;;;;8.43;5.20;;;;;;;;;;5075658;28;20490;-59
2023/05/27 00:35:59;;;;;;;8.43;5.87;;;;;;;;;;5075896;28;20796;-59
2023/05/27 00:38:28;;;;;;;8.73;4.60;;;;;;;;;;5076061;28;20459;-60
2023/05/27 00:41:03;;;;;;;14.17;5.40;;;;;;;;;;5075667;28;20971;-60
2023/05/27 00:43:32;;;;;;;14.67;6.93;;;;;;;;;;5075800;28;20426;-60
2023/05/27 00:45:59;;;;;;;11.03;7.73;;;;;;;;;;5075510;28;20455;-60
2023/05/27 00:48:31;;;;;;;15.73;8.40;;;;;;;;;;5075756;28;20524;-60
2023/05/27 00:50:59;;;;;;;13.30;8.10;;;;;;;;;;5075291;28;20439;-60
2023/05/27 00:53:27;;;;;;;12.53;7.37;;;;;;;;;;5075558;28;20479;-60
2023/05/27 00:55:58;;;;;;;16.93;8.90;;;;;;;;;;5074580;28;20430;-60
2023/05/27 00:58:27;;;;;;;18.57;9.83;;;;;;;;;;5075602;28;20451;-61
2023/05/27 01:00:56;;;;;;;27.63;17.20;;;;;;;;;;5075671;28;20478;-60
2023/05/27 01:03:24;;;;;;;27.10;16.63;;;;;;;;;;5075797;28;20448;-60
2023/05/27 01:05:57;;;;;;;34.33;19.00;;;;;;;;;;5075380;28;20442;-60
2023/05/27 01:08:30;;;;;;;38.73;18.40;;;;;;;;;;5075185;28;20448;-60
2023/05/27 01:10:58;;;;;;;23.77;15.53;;;;;;;;;;5075411;28;20467;-60
2023/05/27 01:13:32;;;;;;;23.67;15.73;;;;;;;;;;5075038;28;20905;-61
2023/05/27 01:16:04;;;;;;;24.70;15.10;;;;;;;;;;5075482;28;21028;-60
2023/05/27 01:18:33;;;;;;;24.60;15.00;;;;;;;;;;5074539;28;20455;-60
2023/05/27 01:21:05;;;;;;;25.87;16.60;;;;;;;;;;5074779;28;20458;-59
2023/05/27 01:23:34;;;;;;;30.60;17.33;;;;;;;;;;5075150;28;20484;-62
2023/05/27 01:26:01;;;;;;;25.37;15.43;;;;;;;;;;5075002;28;20448;-63
2023/05/27 01:28:31;;;;;;;23.50;15.10;;;;;;;;;;5074595;28;20953;-60
2023/05/27 01:31:02;;;;;;;20.23;13.43;;;;;;;;;;5074774;28;20962;-59
2023/05/27 01:33:37;;;;;;;29.13;15.13;;;;;;;;;;5074686;28;20456;-60
2023/05/27 01:36:06;;;;;;;24.43;14.17;;;;;;;;;;5074927;28;20506;-60
2023/05/27 01:38:36;;;;;;;24.43;15.67;;;;;;;;;;5074594;28;20455;-59
2023/05/27 01:41:05;;;;;;;25.03;14.13;;;;;;;;;;5074443;28;20451;-60
2023/05/27 01:43:35;;;;;;;29.60;13.60;;;;;;;;;;5074753;28;20509;-60
2023/05/27 01:46:03;;;;;;;28.37;13.97;;;;;;;;;;5074551;28;20456;-60
2023/05/27 01:48:34;;;;;;;21.17;13.20;;;;;;;;;;5074505;28;20508;-60
2023/05/27 01:51:02;;;;;;;22.43;11.27;;;;;;;;;;5074674;28;20462;-59
2023/05/27 01:53:29;;;;;;;16.70;11.60;;;;;;;;;;5074310;28;20480;-59
2023/05/27 01:55:58;;;;;;;12.73;9.70;;;;;;;;;;5074228;28;20474;-60
2023/05/27 01:58:25;;;;;;;10.53;8.30;;;;;;;;;;5074394;28;20455;-60
2023/05/27 02:00:53;;;;;;;10.77;6.60;;;;;;;;;;5074312;28;20430;-60
2023/05/27 02:03:20;;;;;;;12.47;7.30;;;;;;;;;;5074313;28;20422;-60
2023/05/27 02:05:48;;;;;;;13.80;7.20;;;;;;;;;;5074343;28;20451;-60
2023/05/27 02:08:17;;;;;;;14.23;6.53;;;;;;;;;;5074048;28;20429;-60
2023/05/27 02:10:45;;;;;;;11.93;6.80;;;;;;;;;;5074222;28;20531;-59
2023/05/27 02:13:14;;;;;;;8.40;6.13;;;;;;;;;;5073872;28;20422;-62
2023/05/27 02:15:42;;;;;;;7.90;6.23;;;;;;;;;;5074041;28;20426;-59
2023/05/27 02:18:09;;;;;;;8.60;5.93;;;;;;;;;;5074138;28;20466;-60
2023/05/27 02:20:37;;;;;;;11.80;5.93;;;;;;;;;;5074101;28;20426;-60
2023/05/27 02:23:08;;;;;;;8.23;5.53;;;;;;;;;;5073955;28;20848;-60
2023/05/27 02:25:36;;;;;;;11.00;5.63;;;;;;;;;;5073792;28;20453;-61
2023/05/27 02:28:04;;;;;;;14.77;5.70;;;;;;;;;;5073495;28;20921;-60
2023/05/27 02:30:32;;;;;;;9.30;5.87;;;;;;;;;;5073515;28;20455;-60
2023/05/27 02:33:00;;;;;;;9.30;5.27;;;;;;;;;;5073871;28;20467;-61
2023/05/27 02:35:27;;;;;;;8.53;5.23;;;;;;;;;;5074081;28;20432;-60
2023/05/27 02:37:55;;;;;;;7.00;5.37;;;;;;;;;;5071980;28;20974;-60
2023/05/27 02:40:26;;;;;;;6.13;4.73;;;;;;;;;;5073944;28;20431;-60
2023/05/27 02:42:53;;;;;;;9.80;4.43;;;;;;;;;;5073388;28;20790;-60
2023/05/27 02:45:22;;;;;;;8.10;4.30;;;;;;;;;;5073600;28;20770;-60
2023/05/27 02:47:50;;;;;;;8.20;5.20;;;;;;;;;;5072899;28;20426;-60
2023/05/27 02:50:17;;;;;;;13.00;5.40;;;;;;;;;;5073059;28;20485;-60
2023/05/27 02:52:44;;;;;;;6.20;4.23;;;;;;;;;;5073087;28;20424;-60
2023/05/27 02:55:12;;;;;;;7.57;4.13;;;;;;;;;;5073371;28;20877;-60
2023/05/27 02:57:39;;;;;;;6.83;4.67;;;;;;;;;;5073355;28;20487;-60
2023/05/27 03:00:08;;;;;;;7.20;4.50;;;;;;;;;;5073637;28;20444;-60
2023/05/27 03:02:36;;;;;;;11.43;5.27;;;;;;;;;;5073376;28;20510;-59
2023/05/27 03:05:05;;;;;;;7.27;4.10;;;;;;;;;;5072936;28;20427;-60
2023/05/27 03:07:32;;;;;;;9.10;5.27;;;;;;;;;;5073004;28;20439;-59
2023/05/27 03:09:59;;;;;;;6.67;4.70;;;;;;;;;;5073174;28;20529;-60
2023/05/27 03:12:26;;;;;;;10.70;4.83;;;;;;;;;;5073367;28;20489;-60
2023/05/27 03:14:54;;;;;;;10.93;4.53;;;;;;;;;;5073455;28;20462;-59
2023/05/27 03:17:21;;;;;;;6.07;4.00;;;;;;;;;;5073220;28;20462;-59
2023/05/27 03:19:52;;;;;;;8.83;4.87;;;;;;;;;;5073257;28;20422;-59
2023/05/27 03:22:21;;;;;;;11.40;4.97;;;;;;;;;;5073192;28;20429;-60
2023/05/27 03:24:49;;;;;;;9.43;4.27;;;;;;;;;;5072975;28;20414;-60
2023/05/27 03:27:16;;;;;;;5.87;4.30;;;;;;;;;;5072800;28;20836;-60
2023/05/27 03:29:43;;;;;;;7.13;4.70;;;;;;;;;;5073047;28;20797;-60
2023/05/27 03:32:11;;;;;;;13.37;4.80;;;;;;;;;;5073142;28;20455;-60
2023/05/27 03:34:38;;;;;;;6.83;4.27;;;;;;;;;;5073091;28;20419;-60
2023/05/27 03:37:05;;;;;;;4.40;4.00;;;;;;;;;;5073107;28;20422;-59
2023/05/27 03:39:34;;;;;;;8.20;5.33;;;;;;;;;;5074665;28;20458;-60
2023/05/27 03:42:02;;;;;;;8.47;4.43;;;;;;;;;;5076747;28;20426;-60
2023/05/27 03:44:29;;;;;;;7.23;4.33;;;;;;;;;;5076963;28;20934;-61
2023/05/27 03:46:56;;;;;;;6.50;4.63;;;;;;;;;;5076808;28;20454;-60
2023/05/27 03:49:24;;;;;;;12.63;5.00;;;;;;;;;;5077050;28;20430;-61
2023/05/27 03:51:51;;;;;;;8.63;4.30;;;;;;;;;;5076796;28;20868;-61
2023/05/27 03:54:18;;;;;;;9.80;4.47;;;;;;;;;;5076601;28;20479;-61
2023/05/27 03:56:47;;;;;;;7.40;4.63;;;;;;;;;;5076499;28;20480;-61
2023/05/27 03:59:15;;;;;;;6.50;3.90;;;;;;;;;;5076612;28;20551;-61
2023/05/27 04:01:42;;;;;;;7.67;4.10;;;;;;;;;;5076239;28;20477;-60
2023/05/27 04:04:09;;;;;;;7.30;4.13;;;;;;;;;;5075810;28;20785;-61
2023/05/27 04:06:37;;;;;;;5.60;4.20;;;;;;;;;;5076071;28;20494;-61
2023/05/27 04:09:09;;;;;;;11.60;4.30;;;;;;;;;;5075914;28;20468;-60
2023/05/27 04:11:38;;;;;;;15.20;4.77;;;;;;;;;;5075920;28;20485;-61
2023/05/27 04:14:07;;;;;;;8.23;4.30;;;;;;;;;;5076618;28;20459;-60
2023/05/27 04:16:35;;;;;;;9.50;4.73;;;;;;;;;;5076321;28;20820;-61
2023/05/27 04:19:02;;;;;;;5.67;3.90;;;;;;;;;;5076281;28;20836;-60
2023/05/27 04:21:31;;;;;;;9.40;4.17;;;;;;;;;;5075991;28;20455;-61
2023/05/27 04:23:58;;;;;;;7.63;3.97;;;;;;;;;;5076249;28;20458;-61
2023/05/27 04:26:26;;;;;;;7.80;4.50;;;;;;;;;;5076058;28;20524;-61
2023/05/27 04:28:53;;;;;;;8.97;5.00;;;;;;;;;;5075919;28;20526;-61
2023/05/27 04:31:22;;;;;;;13.53;5.43;;;;;;;;;;5075958;28;20634;-61
2023/05/27 04:33:49;;;;;;;10.70;4.70;;;;;;;;;;5076125;28;20539;-61
2023/05/27 04:36:19;;;;;;;4.30;3.63;;;;;;;;;;5075914;28;20466;-61
2023/05/27 04:38:46;;;;;;;7.73;4.20;;;;;;;;;;5075788;28;20426;-61
2023/05/27 04:41:14;;;;;;;6.37;4.27;;;;;;;;;;5075441;28;20515;-61
2023/05/27 04:43:42;;;;;;;6.97;4.60;;;;;;;;;;5075223;28;20876;-59
2023/05/27 04:46:09;;;;;;;9.13;4.27;;;;;;;;;;5075180;28;20950;-60
2023/05/27 04:48:38;;;;;;;7.13;4.10;;;;;;;;;;5075922;28;20455;-59
2023/05/27 04:51:05;;;;;;;6.17;3.73;;;;;;;;;;5075479;28;20479;-61
2023/05/27 04:53:32;;;;;;;15.17;4.20;;;;;;;;;;5074824;28;20475;-60
2023/05/27 04:56:00;;;;;;;9.70;4.40;;;;;;;;;;5075119;28;20956;-60
2023/05/27 04:58:28;;;;;;;8.60;3.77;;;;;;;;;;5075091;28;20426;-60
2023/05/27 05:00:57;;;;;;;9.33;3.80;;;;;;;;;;5075861;28;20455;-60
2023/05/27 05:03:36;;;;;;;12.60;4.10;;;;;;;;;;5075567;28;20505;-63
2023/05/27 05:06:06;;;;;;;10.97;3.87;;;;;;;;;;5075521;28;20456;-60
2023/05/27 05:08:34;;;;;;;10.23;4.20;;;;;;;;;;5075496;28;20468;-59
2023/05/27 05:11:01;;;;;;;9.90;5.03;;;;;;;;;;5075209;28;20886;-60
2023/05/27 05:13:29;;;;;;;12.23;4.90;;;;;;;;;;5075408;28;20455;-60
2023/05/27 05:15:57;;;;;;;10.83;4.40;;;;;;;;;;5075330;28;20433;-60
2023/05/27 05:18:24;;;;;;;9.50;4.97;;;;;;;;;;5075251;28;20455;-60
2023/05/27 05:20:51;;;;;;;11.43;4.50;;;;;;;;;;5075109;28;20825;-60
2023/05/27 05:23:20;;;;;;;8.40;4.10;;;;;;;;;;5074622;28;20425;-61
2023/05/27 05:25:54;;;;;;;8.90;3.60;;;;;;;;;;5074292;28;20537;-61
2023/05/27 05:28:21;;;;;;;9.43;3.70;;;;;;;;;;5074983;28;20854;-61
2023/05/27 05:30:48;;;;;;;10.73;4.00;;;;;;;;;;5074823;28;20787;-61
2023/05/27 05:33:15;;;;;;;7.90;3.50;;;;;;;;;;5074409;28;20487;-61
2023/05/27 05:35:42;;;;;;;7.90;4.27;;;;;;;;;;5074101;28;20549;-61
2023/05/27 05:38:09;;;;;;;6.20;3.50;;;;;;;;;;5074341;28;20461;-60
2023/05/27 05:40:38;;;;;;;10.50;3.90;;;;;;;;;;5074564;28;20459;-61
2023/05/27 05:43:05;;;;;;;5.40;3.23;;;;;;;;;;5074181;28;20447;-61
2023/05/27 05:45:32;;;;;;;7.40;3.53;;;;;;;;;;5074023;28;20448;-61
2023/05/27 05:48:01;;;;;;;7.53;3.40;;;;;;;;;;5073860;28;20537;-61
2023/05/27 05:50:28;;;;;;;6.60;2.87;;;;;;;;;;5073665;28;20978;-61
2023/05/27 05:52:56;;;;;;;7.37;3.40;;;;;;;;;;5074406;28;20423;-61
2023/05/27 05:55:23;;;;;;;10.77;3.73;;;;;;;;;;5074123;28;20476;-61
2023/05/27 05:57:51;;;;;;;6.27;3.20;;;;;;;;;;5074287;28;20497;-61
2023/05/27 06:00:19;;;;;;;10.23;3.40;;;;;;;;;;5073930;28;20452;-61
2023/05/27 06:02:46;;;;;;;10.00;3.50;;;;;;;;;;5072946;28;20457;-61
2023/05/27 06:05:13;;;;;;;10.93;3.40;;;;;;;;;;5074210;28;20804;-60
2023/05/27 06:07:40;;;;;;;7.17;2.90;;;;;;;;;;5073983;28;20456;-59
2023/05/27 06:10:07;;;;;;;7.10;3.33;;;;;;;;;;5073794;28;20475;-61
2023/05/27 06:12:35;;;;;;;7.97;3.13;;;;;;;;;;5073573;28;20458;-59
2023/05/27 06:15:04;;;;;;;6.07;2.50;;;;;;;;;;5073445;28;20478;-59
2023/05/27 06:17:31;;;;;;;5.30;2.40;;;;;;;;;;5073225;28;20484;-59
2023/05/27 06:19:58;;;;;;;6.40;2.87;;;;;;;;;;5073468;28;20487;-60
2023/05/27 06:22:25;;;;;;;6.73;2.80;;;;;;;;;;5073434;28;20486;-60
2023/05/27 06:24:52;;;;;;;4.87;2.33;;;;;;;;;;5073569;28;20458;-60
2023/05/27 06:27:19;;;;;;;4.33;2.40;;;;;;;;;;5073356;28;20453;-59
2023/05/27 06:29:47;;;;;;;6.93;3.43;;;;;;;;;;5073568;28;20459;-59
2023/05/27 06:32:16;;;;;;;8.40;2.43;;;;;;;;;;5073062;28;20488;-59
2023/05/27 06:34:43;;;;;;;6.57;2.80;;;;;;;;;;5073414;28;20426;-59
2023/05/27 06:37:10;;;;;;;2.70;2.00;;;;;;;;;;5073103;28;20513;-59
2023/05/27 06:39:37;;;;;;;4.93;2.10;;;;;;;;;;5073215;28;20498;-59
2023/05/27 06:42:04;;;;;;;3.37;1.83;;;;;;;;;;5073312;28;20456;-61
2023/05/27 06:44:31;;;;;;;5.50;2.10;;;;;;;;;;5073292;28;21008;-60
2023/05/27 06:46:59;;;;;;;4.83;2.27;;;;;;;;;;5073233;28;20460;-60
2023/05/27 06:49:27;;;;;;;4.50;2.40;;;;;;;;;;5073152;28;20475;-60
2023/05/27 06:51:54;;;;;;;4.80;2.30;;;;;;;;;;5072931;28;20545;-60
2023/05/27 06:54:21;;;;;;;7.73;2.80;;;;;;;;;;5072697;28;20975;-60
2023/05/27 06:56:48;;;;;;;2.93;2.10;;;;;;;;;;5072973;28;20452;-60
2023/05/27 06:59:15;;;;;;;3.30;1.60;;;;;;;;;;5072796;28;20476;-60
2023/05/27 07:01:42;;;;;;;3.87;1.80;;;;;;;;;;5073180;28;20955;-60
2023/05/27 07:04:09;;;;;;;1.90;1.60;;;;;;;;;;5072915;28;20453;-61
2023/05/27 07:06:38;;;;;;;3.70;1.80;;;;;;;;;;5072751;28;20451;-60
2023/05/27 07:09:05;;;;;;;3.87;1.80;;;;;;;;;;5072869;28;20445;-61
2023/05/27 07:11:32;;;;;;;3.57;1.80;;;;;;;;;;5072760;28;20576;-60
2023/05/27 07:13:59;;;;;;;4.83;1.60;;;;;;;;;;5075077;28;20483;-61
2023/05/27 07:16:27;;;;;;;4.10;2.10;;;;;;;;;;5077207;28;20458;-61
2023/05/27 07:18:54;;;;;;;4.27;1.23;;;;;;;;;;5077140;28;20495;-60
2023/05/27 07:21:21;;;;;;;2.30;1.47;;;;;;;;;;5077484;28;21059;-64
2023/05/27 07:23:51;;;;;;;1.90;1.30;;;;;;;;;;5076801;28;20820;-60
2023/05/27 07:26:18;;;;;;;3.80;1.47;;;;;;;;;;5077227;28;20464;-60
2023/05/27 07:28:48;;;;;;;3.57;1.33;;;;;;;;;;5077229;28;20578;-60
2023/05/27 07:31:16;;;;;;;3.90;1.40;;;;;;;;;;5076595;28;20478;-60
2023/05/27 07:33:43;;;;;;;4.90;1.70;;;;;;;;;;5076832;28;20447;-60
2023/05/27 07:36:10;;;;;;;3.93;1.50;;;;;;;;;;5076906;28;20854;-60
2023/05/27 07:38:37;;;;;;;2.60;1.30;;;;;;;;;;5076793;28;20450;-60
2023/05/27 07:41:06;;;;;;;1.70;1.27;;;;;;;;;;5076326;28;20472;-60
2023/05/27 07:43:33;;;;;;;3.60;1.33;;;;;;;;;;5076399;28;20446;-61
2023/05/27 07:46:00;;;;;;;3.80;1.47;;;;;;;;;;5076359;28;20493;-60
2023/05/27 07:48:27;;;;;;;3.23;1.37;;;;;;;;;;5076374;28;20449;-60
2023/05/27 07:50:54;;;;;;;3.37;1.90;;;;;;;;;;5076124;28;20481;-60
2023/05/27 07:53:21;;;;;;;2.30;2.10;;;;;;;;;;5076086;28;20476;-60
2023/05/27 07:55:48;;;;;;;2.30;1.20;;;;;;;;;;5075919;28;20446;-60
2023/05/27 07:58:17;;;;;;;2.30;1.10;;;;;;;;;;5076295;28;20472;-60
2023/05/27 08:00:44;;;;;;;1.60;0.93;;;;;;;;;;5076368;28;20813;-60
2023/05/27 08:03:11;;;;;;;1.57;1.10;;;;;;;;;;5076012;28;20476;-60
2023/05/27 08:05:38;;;;;;;3.87;1.30;;;;;;;;;;5076218;28;20512;-60
2023/05/27 08:08:06;;;;;;;2.00;1.23;;;;;;;;;;5076155;28;20453;-60
2023/05/27 08:10:33;;;;;;;6.70;1.40;;;;;;;;;;5075925;28;20444;-61
2023/05/27 08:13:00;;;;;;;1.93;1.30;;;;;;;;;;5075699;28;20573;-60
2023/05/27 08:15:28;;;;;;;3.10;1.30;;;;;;;;;;5075640;28;20445;-61
2023/05/27 08:17:55;;;;;;;1.57;1.00;;;;;;;;;;5075768;28;20452;-60
2023/05/27 08:20:22;;;;;;;1.20;1.10;;;;;;;;;;5075389;28;20458;-61
2023/05/27 08:22:49;;;;;;;6.87;1.40;;;;;;;;;;5075608;28;20453;-61
2023/05/27 08:25:17;;;;;;;1.70;1.33;;;;;;;;;;5074868;28;20494;-61
2023/05/27 08:27:45;;;;;;;1.60;1.50;;;;;;;;;;5075361;28;20458;-61
2023/05/27 08:30:12;;;;;;;4.00;1.10;;;;;;;;;;5075617;28;20454;-61
2023/05/27 08:32:41;;;;;;;4.20;1.10;;;;;;;;;;5075546;28;20495;-61
2023/05/27 08:35:08;;;;;;;1.53;1.10;;;;;;;;;;5075249;28;20456;-61
2023/05/27 08:37:36;;;;;;;2.23;1.20;;;;;;;;;;5075317;28;20460;-61
2023/05/27 08:40:06;;;;;;;5.47;1.03;;;;;;;;;;5075103;28;20946;-61
2023/05/27 08:42:33;;;;;;;1.57;0.83;;;;;;;;;;5075301;28;20554;-61
2023/05/27 08:45:02;;;;;;;1.87;1.00;;;;;;;;;;5075198;28;20949;-61
2023/05/27 08:47:33;;;;;;;2.53;1.13;;;;;;;;;;5075087;28;20450;-61
2023/05/27 08:50:02;;;;;;;3.07;1.03;;;;;;;;;;5075304;28;20444;-60
2023/05/27 08:52:32;;;;;;;2.30;1.10;;;;;;;;;;5075054;28;20482;-61
2023/05/27 08:55:01;;;;;;;1.63;1.30;;;;;;;;;;5075023;28;20481;-60
2023/05/27 08:57:29;;;;;;;4.40;1.00;;;;;;;;;;5074990;28;20502;-61
2023/05/27 08:59:57;;;;;;;2.47;1.07;;;;;;;;;;5074961;28;20485;-61
2023/05/27 09:02:24;;;;;;;4.60;1.40;;;;;;;;;;5074909;28;20448;-61
2023/05/27 09:04:51;;;;;;;2.33;1.17;;;;;;;;;;5074977;28;20873;-62
2023/05/27 09:07:20;;;;;;;1.07;0.87;;;;;;;;;;5074771;28;20447;-59
2023/05/27 09:09:56;;;;;;;1.60;1.30;;;;;;;;;;5074798;28;20780;-60
2023/05/27 09:12:25;;;;;;;1.10;0.90;;;;;;;;;;5074593;28;20486;-60
2023/05/27 09:14:52;;;;;;;1.27;1.10;;;;;;;;;;5074624;28;20527;-60
2023/05/27 09:17:19;;;;;;;2.07;1.00;;;;;;;;;;5074796;28;20501;-59
2023/05/27 09:19:47;;;;;;;2.23;1.10;;;;;;;;;;5074555;28;20838;-61
2023/05/27 09:22:21;;;;;;;1.27;1.10;;;;;;;;;;5074526;28;20858;-60
2023/05/27 09:24:48;;;;;;;1.20;0.90;;;;;;;;;;5074355;28;20495;-60
2023/05/27 09:27:16;;;;;;;1.83;1.10;;;;;;;;;;5074400;28;20968;-61
2023/05/27 09:29:50;;;;;;;0.83;0.80;;;;;;;;;;5074359;28;20489;-60
2023/05/27 09:32:24;;;;;;;1.20;0.90;;;;;;;;;;5074205;28;20481;-61
2023/05/27 09:34:52;;;;;;;1.20;1.00;;;;;;;;;;5074270;28;20875;-61
2023/05/27 09:37:20;;;;;;;1.37;0.90;;;;;;;;;;5073095;28;20475;-60
2023/05/27 09:39:49;;;;;;;2.20;1.13;;;;;;;;;;5073897;28;20455;-60
2023/05/27 09:42:16;;;;;;;1.13;0.90;;;;;;;;;;5074224;28;20452;-61
2023/05/27 09:44:48;;;;;;;3.00;0.83;;;;;;;;;;5073882;28;20458;-60
2023/05/27 09:47:20;;;;;;;1.20;0.83;;;;;;;;;;5074147;28;20454;-61
2023/05/27 09:49:49;;;;;;;1.13;1.00;;;;;;;;;;5074018;28;20452;-61
2023/05/27 09:52:19;;;;;;;1.33;0.93;;;;;;;;;;5073637;28;20479;-60
2023/05/27 09:54:46;;;;;;;1.50;1.20;;;;;;;;;;5073514;28;20480;-61
2023/05/27 09:57:15;;;;;;;1.03;0.90;;;;;;;;;;5073669;28;20448;-60
2023/05/27 09:59:42;;;;;;;1.10;1.00;;;;;;;;;;5073817;28;20462;-60
2023/05/27 10:02:10;;;;;;;1.43;1.20;;;;;;;;;;5073739;28;20517;-60
2023/05/27 10:04:37;;;;;;;2.93;1.40;;;;;;;;;;5073510;28;20508;-60
2023/05/27 10:07:09;;;;;;;2.73;1.40;;;;;;;;;;5073518;28;20965;-60
2023/05/27 10:09:39;;;;;;;1.23;1.13;;;;;;;;;;5073678;28;20452;-60
2023/05/27 10:12:06;;;;;;;1.93;1.73;;;;;;;;;;5073372;28;21007;-60
2023/05/27 10:14:35;;;;;;;2.73;1.30;;;;;;;;;;5073465;28;20448;-60
2023/05/27 10:17:02;;;;;;;1.50;1.10;;;;;;;;;;5073417;28;20539;-61
2023/05/27 10:19:29;;;;;;;1.77;1.30;;;;;;;;;;5073295;28;20465;-60
2023/05/27 10:21:58;;;;;;;2.20;1.30;;;;;;;;;;5073293;28;20943;-60
2023/05/27 10:24:38;;;;;;;2.03;1.60;;;;;;;;;;5073464;28;20854;-60
2023/05/27 10:27:05;;;;;;;2.10;1.50;;;;;;;;;;5073316;28;20450;-62
2023/05/27 10:29:40;;;;;;;4.63;2.00;;;;;;;;;;5073105;28;20530;-60
2023/05/27 10:32:07;;;;;;;1.93;1.40;;;;;;;;;;5073253;28;20467;-60
2023/05/27 10:34:37;;;;;;;1.63;1.37;;;;;;;;;;5073150;28;20976;-61
2023/05/27 10:37:05;;;;;;;1.50;1.33;;;;;;;;;;5073246;28;20454;-60
2023/05/27 10:39:32;;;;;;;3.37;1.17;;;;;;;;;;5073009;28;20946;-60
2023/05/27 10:41:59;;;;;;;2.60;1.20;;;;;;;;;;5072950;28;20486;-61
2023/05/27 10:44:30;;;;;;;1.70;1.60;;;;;;;;;;5073240;28;20458;-60
2023/05/27 10:47:06;;;;;;;2.13;1.20;;;;;;;;;;5073187;28;20501;-60
2023/05/27 10:49:36;;;;;;;4.50;1.30;;;;;;;;;;5073065;28;20538;-60
2023/05/27 10:52:10;;;;;;;1.40;1.30;;;;;;;;;;5072993;28;20444;-60
2023/05/27 10:54:39;;;;;;;1.47;1.13;;;;;;;;;;5072758;28;20990;-60
2023/05/27 10:57:07;;;;;;;1.33;1.17;;;;;;;;;;5073066;28;20539;-60
2023/05/27 10:59:40;;;;;;;2.03;1.07;;;;;;;;;;5072977;28;20658;-60
2023/05/27 11:02:08;;;;;;;2.00;1.30;;;;;;;;;;5072951;28;20451;-60
2023/05/27 11:04:36;;;;;;;1.20;1.10;;;;;;;;;;5073015;28;20501;-60
2023/05/27 11:07:04;;;;;;;2.60;1.63;;;;;;;;;;5072671;28;20448;-61
2023/05/27 11:09:31;;;;;;;1.80;1.17;;;;;;;;;;5072756;28;20493;-60
2023/05/27 11:11:58;;;;;;;1.63;1.00;;;;;;;;;;5072973;28;20516;-60
2023/05/27 11:14:25;;;;;;;1.50;1.07;;;;;;;;;;5072730;28;20567;-60
2023/05/27 11:16:52;;;;;;;1.53;1.20;;;;;;;;;;5072837;28;20530;-60
2023/05/27 11:19:22;;;;;;;2.40;1.57;;;;;;;;;;5072795;28;20527;-60
2023/05/27 11:21:49;;;;;;;3.73;1.07;;;;;;;;;;5072638;28;20486;-60
2023/05/27 11:24:17;;;;;;;1.30;1.10;;;;;;;;;;5072874;28;20511;-60
2023/05/27 11:26:46;;;;;;;1.60;1.50;;;;;;;;;;5072784;28;20539;-60
2023/05/27 11:29:13;;;;;;;1.10;1.00;;;;;;;;;;5072588;28;20973;-60
2023/05/27 11:31:40;;;;;;;2.43;1.30;;;;;;;;;;5072420;28;20483;-60
2023/05/27 11:34:13;;;;;;;2.83;1.30;;;;;;;;;;5072543;28;20557;-60
2023/05/27 11:36:44;;;;;;;3.97;1.10;;;;;;;;;;5072579;28;20932;-60
2023/05/27 11:39:13;;;;;;;3.00;1.07;;;;;;;;;;5072553;28;20530;-60
2023/05/27 11:41:50;;;;;;;1.83;1.13;;;;;;;;;;5072581;28;20455;-60
2023/05/27 11:44:17;;;;;;;2.00;1.03;;;;;;;;;;5072597;28;20539;-60
2023/05/27 11:46:45;;;;;;;3.20;1.07;;;;;;;;;;5072241;28;20454;-60
2023/05/27 11:49:12;;;;;;;2.30;1.27;;;;;;;;;;5072629;28;20793;-60
2023/05/27 11:51:40;;;;;;;1.50;1.40;;;;;;;;;;5072624;28;20534;-60
2023/05/27 11:54:08;;;;;;;2.43;1.47;;;;;;;;;;5072282;28;20533;-60
2023/05/27 11:56:35;;;;;;;1.10;0.90;;;;;;;;;;5072431;28;20444;-60
2023/05/27 11:59:02;;;;;;;1.50;1.40;;;;;;;;;;5072297;28;20975;-60
2023/05/27 12:01:29;;;;;;;1.00;0.80;;;;;;;;;;5075246;28;20934;-60
2023/05/27 12:03:56;;;;;;;5.37;1.57;;;;;;;;;;5076054;28;20547;-60
2023/05/27 12:06:23;;;;;;;2.70;1.10;;;;;;;;;;5076108;28;20475;-60
2023/05/27 12:08:50;;;;;;;1.17;0.97;;;;;;;;;;5076036;28;21014;-60
2023/05/27 12:11:19;;;;;;;1.10;1.00;;;;;;;;;;5075897;28;20538;-61
2023/05/27 12:13:46;;;;;;;1.90;1.13;;;;;;;;;;5075659;28;20483;-60
2023/05/27 12:16:13;;;;;;;1.10;0.90;;;;;;;;;;5075665;28;21000;-60
2023/05/27 12:18:41;;;;;;;1.60;1.30;;;;;;;;;;5075802;28;20448;-60
2023/05/27 12:21:08;;;;;;;2.80;1.13;;;;;;;;;;5075731;28;20444;-60
2023/05/27 12:23:35;;;;;;;1.90;1.23;;;;;;;;;;5075782;28;20444;-60
2023/05/27 12:26:02;;;;;;;1.20;1.07;;;;;;;;;;5075643;28;20535;-60
2023/05/27 12:28:30;;;;;;;1.70;1.10;;;;;;;;;;5075372;28;20505;-61
2023/05/27 12:30:58;;;;;;;4.40;1.20;;;;;;;;;;5075421;28;20452;-61
2023/05/27 12:33:25;;;;;;;2.50;1.17;;;;;;;;;;5075261;28;20572;-61
2023/05/27 12:35:52;;;;;;;1.87;1.00;;;;;;;;;;5075490;28;20455;-61
2023/05/27 12:38:19;;;;;;;1.57;1.10;;;;;;;;;;5075241;28;20448;-60
2023/05/27 12:40:46;;;;;;;4.17;1.10;;;;;;;;;;5075303;28;20502;-61
2023/05/27 12:43:13;;;;;;;1.87;1.10;;;;;;;;;;5075239;28;20497;-61
2023/05/27 12:45:41;;;;;;;2.93;1.30;;;;;;;;;;5075350;28;20479;-61
2023/05/27 12:48:08;;;;;;;1.53;1.30;;;;;;;;;;5075166;28;20452;-60
2023/05/27 12:50:35;;;;;;;1.33;1.23;;;;;;;;;;5075260;28;20479;-60
2023/05/27 12:53:03;;;;;;;1.57;1.03;;;;;;;;;;5074819;28;20507;-61
2023/05/27 12:55:30;;;;;;;1.20;1.00;;;;;;;;;;5074964;28;20452;-60
2023/05/27 12:57:57;;;;;;;1.80;1.30;;;;;;;;;;5075178;28;20455;-61
2023/05/27 13:00:24;;;;;;;2.00;1.40;;;;;;;;;;5075047;28;20530;-60
2023/05/27 13:02:53;;;;;;;2.43;1.37;;;;;;;;;;5075005;28;20455;-61
2023/05/27 13:05:20;;;;;;;1.60;1.27;;;;;;;;;;5074919;28;20542;-60
2023/05/27 13:07:57;;;;;;;1.93;1.20;;;;;;;;;;5074827;28;20452;-60
2023/05/27 13:10:24;;;;;;;1.23;1.10;;;;;;;;;;5074934;28;20531;-61
2023/05/27 13:12:51;;;;;;;1.73;1.10;;;;;;;;;;5074580;28;20452;-61
2023/05/27 13:15:19;;;;;;;1.10;1.00;;;;;;;;;;5074733;28;20866;-60
2023/05/27 13:17:46;;;;;;;1.50;1.23;;;;;;;;;;5074531;28;20548;-60
2023/05/27 13:20:15;;;;;;;2.00;1.23;;;;;;;;;;5074515;28;20486;-61
2023/05/27 13:22:42;;;;;;;2.80;1.47;;;;;;;;;;5074382;28;20451;-61
2023/05/27 13:25:10;;;;;;;2.47;1.50;;;;;;;;;;5074623;28;20497;-60
2023/05/27 13:27:37;;;;;;;7.47;1.43;;;;;;;;;;5074315;28;20450;-60
2023/05/27 13:30:05;;;;;;;1.40;1.10;;;;;;;;;;5074261;28;20927;-61
2023/05/27 13:32:32;;;;;;;2.67;1.17;;;;;;;;;;5074166;28;20451;-60
2023/05/27 13:34:59;;;;;;;1.70;1.23;;;;;;;;;;5074022;28;20564;-60
2023/05/27 13:37:28;;;;;;;1.73;1.40;;;;;;;;;;5073967;28;20811;-60
2023/05/27 13:39:55;;;;;;;1.40;1.17;;;;;;;;;;5074216;28;20448;-61
2023/05/27 13:42:22;;;;;;;3.00;1.33;;;;;;;;;;5074091;28;20898;-60
2023/05/27 13:44:49;;;;;;;1.50;1.30;;;;;;;;;;5073948;28;20458;-60
2023/05/27 13:47:16;;;;;;;2.00;1.10;;;;;;;;;;5073943;28;20444;-61
2023/05/27 13:49:43;;;;;;;4.17;1.60;;;;;;;;;;5073765;28;20947;-61
2023/05/27 13:52:10;;;;;;;1.70;1.10;;;;;;;;;;5074023;28;20443;-61
2023/05/27 13:54:39;;;;;;;5.77;2.20;;;;;;;;;;5073748;28;20877;-60
2023/05/27 13:57:06;;;;;;;1.30;1.20;;;;;;;;;;5073851;28;20869;-61
2023/05/27 13:59:33;;;;;;;2.80;1.30;;;;;;;;;;5073815;28;20451;-60
2023/05/27 14:02:05;;;;;;;2.07;1.03;;;;;;;;;;5073720;28;20807;-61
2023/05/27 14:04:32;;;;;;;1.10;0.90;;;;;;;;;;5074105;28;20547;-61
2023/05/27 14:06:59;;;;;;;2.50;1.87;;;;;;;;;;5073713;28;20452;-61
2023/05/27 14:09:26;;;;;;;4.40;1.20;;;;;;;;;;5073479;28;20539;-61
2023/05/27 14:11:54;;;;;;;3.67;1.53;;;;;;;;;;5073670;28;20535;-60
2023/05/27 14:14:21;;;;;;;1.40;1.13;;;;;;;;;;5073306;28;20998;-60
2023/05/27 14:16:49;;;;;;;1.30;1.20;;;;;;;;;;5073274;28;20542;-61
2023/05/27 14:19:15;;;;;;;2.10;1.50;;;;;;;;;;5073419;28;20455;-61
2023/05/27 14:21:43;;;;;;;2.03;1.40;;;;;;;;;;5073501;28;20454;-60
2023/05/27 14:24:10;;;;;;;2.10;1.70;;;;;;;;;;5072762;28;20542;-61
2023/05/27 14:26:37;;;;;;;1.83;1.27;;;;;;;;;;5073253;28;20447;-61
2023/05/27 14:29:06;;;;;;;1.50;1.30;;;;;;;;;;5073131;28;20448;-61
2023/05/27 14:31:32;;;;;;;1.40;1.30;;;;;;;;;;5073562;28;20483;-60
2023/05/27 14:34:00;;;;;;;1.57;1.23;;;;;;;;;;5073188;28;20480;-60
2023/05/27 14:36:27;;;;;;;1.47;1.30;;;;;;;;;;5073029;28;20885;-60
2023/05/27 14:38:54;;;;;;;1.43;1.30;;;;;;;;;;5073150;28;20440;-60
2023/05/27 14:41:21;;;;;;;1.60;1.30;;;;;;;;;;5073029;28;20450;-61
2023/05/27 14:43:50;;;;;;;2.63;1.60;;;;;;;;;;5072903;28;20538;-61
2023/05/27 14:46:18;;;;;;;3.17;1.83;;;;;;;;;;5073170;28;20448;-60